Nearby METAR Reports

 

KBML - Berlin, NH
Updated: Sat, 18-Aug-2018 9:41pm EDT
Mist, Partly cloudy
Mist, Partly cloudy
 Wind from calm
Wind: Calm
Temperature: 55°F , 13°C
Dew Point: 55°F , 13°C
Humidity: 100%
Barometer: 29.98 inHg , 1015.2 hPa
Summary: Mist
Clouds: Partly cloudy
Visibility: 1 3/4 miles , 2.8 km
Cloud details: Partly cloudy 200 ft
2018/08/19 01:41 KBML 190141Z AUTO 00000KT 1 3/4SM BR SCT002 13/13 A2998 RMK AO2 T01330133
KCON - Concord, NH
Updated: Sat, 18-Aug-2018 9:08pm EDT
Overcast
Overcast
 Wind from NE
Wind: NE 10 mph , 17 km/h, Gust: 21 mph , 33 km/h
Temperature: 70°F , 21°C
Dew Point: 61°F , 16°C
Humidity: 73%
Barometer: 29.92 inHg , 1013.2 hPa
Clouds: Overcast
Visibility: 10 miles , 16 km
Cloud details: Few Clouds 2500 ft
Partly cloudy 3100 ft
Overcast 4400 ft
2018/08/19 01:08 KCON 190108Z AUTO 05009G18KT 10SM FEW025 SCT031 OVC044 21/16 A2992 RMK AO2 T02060161
KAFN - Lebanon, NH
Updated: Sat, 18-Aug-2018 9:27pm EDT
Light rain, Mist, Overcast
Light rain, Mist, Overcast
 Wind from varies
Wind: varies 3 mph , 6 km/h
Temperature: 66°F , 19°C
Dew Point: 64°F , 18°C
Humidity: 94%
Barometer: 29.94 inHg , 1013.9 hPa
Summary: Light rain, Mist
Clouds: Overcast
Visibility: 6 miles , 10 km
Cloud details: Overcast 1300 ft
2018/08/19 01:27 KAFN 190127Z AUTO VRB03KT 6SM -RA BR OVC013 19/18 A2994 RMK AO2 RAB15 P0000 T01940178
 
KMHT - Manchester, NH
Updated: Sat, 18-Aug-2018 9:42pm EDT
Overcast
Overcast
 Wind from NE
Wind: NE 12 mph , 19 km/h
Temperature: 68°F , 20°C
Dew Point: 64°F , 18°C
Humidity: 88%
Barometer: 29.90 inHg , 1012.5 hPa
Clouds: Overcast
Visibility: 10 miles , 16 km
Cloud details: Few Clouds 1000 ft
Partly cloudy 2500 ft
Overcast 4500 ft
2018/08/19 01:42 KMHT 190142Z 04010KT 10SM FEW010 SCT025 OVC045 20/18 A2990 RMK AO2 RAB0055E20 P0000 T02000183 $
KMWN - Mount Washington
Updated: Sat, 18-Aug-2018 8:53pm EDT
Fog, Overcast
Fog, Overcast
 Wind from ENE
Wind: ENE 26 mph , 43 km/h, Gust: 36 mph , 57 km/h
Temperature: 46°F , 8°C
Wind Chill: 37°F , 3°C
Dew Point: 46°F , 8°C
Humidity: 100%
Summary: Fog
Clouds: Overcast
Visibility: 0 miles , 0 km
Cloud details: Overcast 100 ft
2018/08/19 00:53 KMWN 190053Z 06023G31KT 0SM FG VV001 08/08 RMK
K25B - Portsmouth Harbor
Updated: Wed, 31-Dec-1969 7:00pm EST
NOT Current
unable to load K25B data RC=404 Not Found
unable to load K25B data RC=404 Not Found
 
 
KDDH - Bennington, VT
Updated: Sat, 18-Aug-2018 9:02pm EDT
Overcast
Overcast
 Wind from varies
Wind: varies 3 mph , 6 km/h
Temperature: 66°F , 19°C
Dew Point: 61°F , 16°C
Humidity: 83%
Barometer: 29.93 inHg , 1013.5 hPa
Clouds: Overcast
Visibility: 10 miles , 16 km
Cloud details: Overcast 3400 ft
2018/08/19 01:02 KDDH 190102Z AUTO VRB03KT 10SM OVC034 19/16 A2993 RMK AO2 T01890161
K9B2 - Newport, VT
Updated: Wed, 31-Dec-1969 7:00pm EST
NOT Current
unable to load K9B2 data RC=404 Not Found
unable to load K9B2 data RC=404 Not Found
 
K1V4 - St Johnsbury, VT
Updated: Sat, 18-Aug-2018 8:54pm EDT

 
Temperature: 66°F , 19°C
Dew Point: 63°F , 17°C
Humidity: 88%
Barometer: 29.94 inHg , 1013.9 hPa
2018/08/19 00:54 K1V4 190054Z AUTO 19/17 A2994 RMK AO1 SLP130 T01890172
 
KBGR - Bangor, ME
Updated: Sat, 18-Aug-2018 8:53pm EDT
Partly cloudy
Partly cloudy
 Wind from NNW
Wind: NNW 7 mph , 11 km/h
Temperature: 63°F , 17°C
Dew Point: 61°F , 16°C
Humidity: 94%
Barometer: 29.91 inHg , 1012.9 hPa
Clouds: Partly cloudy
Visibility: 10 miles , 16 km
Cloud details: Few Clouds 4500 ft
Partly cloudy 8000 ft
Partly cloudy 25000 ft
2018/08/19 00:53 KBGR 190053Z 34006KT 10SM FEW045 SCT080 SCT250 17/16 A2991 RMK AO2 SLP124 T01720161
KBHB - Bar Harbor, ME
Updated: Sat, 18-Aug-2018 8:56pm EDT
Clear
Clear
 Wind from calm
Wind: Calm
Temperature: 63°F , 17°C
Dew Point: 61°F , 16°C
Humidity: 94%
Barometer: 29.90 inHg , 1012.5 hPa
Clouds: Clear
Visibility: 10 miles , 16 km
2018/08/19 00:56 KBHB 190056Z AUTO 00000KT 10SM CLR 17/16 A2990 RMK AO2 SLP128 T01720156 $
74389 - Gray, ME
Updated: Wed, 31-Dec-1969 7:00pm EST
NOT Current
74389 not loaded
74389 not loaded
 
 
KGNR - Greenville,ME
Updated: Sat, 18-Aug-2018 8:56pm EDT

 Wind from NNE
Wind: NNE 3 mph , 6 km/h
Temperature: 61°F , 16°C
Dew Point: 55°F , 13°C
Humidity: 83%
Barometer: 29.95 inHg , 1014.2 hPa
2018/08/19 00:56 KGNR 190056Z AUTO 03003KT 16/13 A2995 RMK AO1 SLP141 T01560133
KOLD - Old Town, ME
Updated: Wed, 31-Dec-1969 7:00pm EST
NOT Current
unable to load KOLD data RC=404 Not Found
unable to load KOLD data RC=404 Not Found
 
KRUM - Rumford, ME
Updated: Wed, 31-Dec-1969 7:00pm EST
NOT Current
unable to load KRUM data RC=404 Not Found
unable to load KRUM data RC=404 Not Found
 










Contact Us

© 2018, johnsnhweather | Weather-Display (10.37S-(b75)) | Valid XHTML 1.0 | Valid CSS

This website is neither affiliated with nor endorsed by the National Weather Service, the town of Pittsburg or any other government agency.
The weather data contained herein is offered without any warranties expressed or implied, and is meant to supplement NOAA weather forecasts and information. Never base important decisions that could result in harm to people or property on this weather information.